This is the latest recevied weather packets stored in our database for station/object EW2310. If no packets are shown the sender has not sent any weather packets the latest 10 day(s).
| Time | Temp. | Humidity | Pressure | Rain* | Wind** | Luminosity | Snow |
|---|---|---|---|---|---|---|---|
| 1777205741 | 21.11° C | 57% | 1017.1 hPa | 0 mm | - | 905 W/m² | - |
| 1777204241 | 20.56° C | 53% | 1017 hPa | 0 mm | - | 930 W/m² | - |
| 1777203941 | 20.56° C | 55% | 1017 hPa | 0 mm | - | 935 W/m² | - |
| 1777203641 | 20.56° C | 55% | 1017 hPa | 0 mm | - | 937 W/m² | - |
| 1777200941 | 21.11° C | 58% | 1017 hPa | 0 mm | - | 944 W/m² | - |
| 1777199141 | 22.22° C | 52% | 1016.9 hPa | 0 mm | - | 935 W/m² | - |
| 1777197041 | 21.67° C | 47% | 1017.2 hPa | 0 mm | - | 896 W/m² | - |
| 1777194944 | 21.67° C | 42% | 1017.1 hPa | 0 mm | - | 851 W/m² | - |
| 1777194344 | 22.78° C | 39% | 1017 hPa | 0 mm | - | 831 W/m² | - |
| 1777193441 | 21.67° C | 43% | 1017 hPa | 0 mm | - | 722 W/m² | - |
| 1777191341 | 20.56° C | 48% | 1016.8 hPa | 0 mm | - | 580 W/m² | - |
| 1777191041 | 20.56° C | 49% | 1016.8 hPa | 0 mm | - | 587 W/m² | - |
| 1777190441 | 20.56° C | 51% | 1016.7 hPa | 0 mm | - | 608 W/m² | - |
| 1777189241 | 19.44° C | 55% | 1016.7 hPa | 0 mm | - | 617 W/m² | - |
| 1777187441 | 17.22° C | 61% | 1016.5 hPa | 0 mm | - | 533 W/m² | - |
| 1777187141 | 16.67° C | 62% | 1016.5 hPa | 0 mm | - | 510 W/m² | - |
| 1777185941 | 16.11° C | 64% | 1016.5 hPa | 0 mm | - | 322 W/m² | - |
| 1777185641 | 15.56° C | 65% | 1016.4 hPa | 0 mm | - | 292 W/m² | - |
| 1777185341 | 15.56° C | 65% | 1016.3 hPa | 0 mm | - | 308 W/m² | - |
| 1777184441 | 14.44° C | 67% | 1016.2 hPa | 0 mm | - | 320 W/m² | - |
| 1777182341 | 13.33° C | 66% | 1016 hPa | 0 mm | - | 250 W/m² | - |
| 1777181141 | 12.78° C | 67% | 1015.8 hPa | 0 mm | - | 174 W/m² | - |
| 1777178741 | 12.22° C | 73% | 1015.5 hPa | 0 mm | - | 40 W/m² | - |
| 1777178141 | 12.22° C | 72% | 1015.5 hPa | 0 mm | - | 21 W/m² | - |
| 1777174844 | 12.22° C | 77% | 1015.2 hPa | 0 mm | - | 0 W/m² | - |
* Rain latest hour (hover to see other rain measurements)
** Current wind speed in m/s (hover to see current wind gust speed)